createdAt,value
2022-08-07T00:00:30.674Z,2.67
2022-08-07T00:03:09.787Z,2.40
2022-08-07T00:05:37.763Z,2.72
2022-08-07T00:08:07.830Z,2.40
2022-08-07T00:10:35.988Z,2.30
2022-08-07T00:13:25.562Z,2.10
2022-08-07T00:15:55.379Z,2.55
2022-08-07T00:18:25.213Z,2.42
2022-08-07T00:21:02.013Z,2.13
2022-08-07T00:23:32.860Z,2.75
2022-08-07T00:26:12.971Z,3.00
2022-08-07T00:28:55.704Z,2.45
2022-08-07T00:31:37.390Z,2.85
2022-08-07T00:34:08.976Z,2.33
2022-08-07T00:36:38.582Z,2.55
2022-08-07T00:39:16.356Z,2.45
2022-08-07T00:41:53.833Z,2.47
2022-08-07T00:44:29.830Z,2.25
2022-08-07T00:46:56.753Z,2.10
2022-08-07T00:49:24.794Z,2.10
2022-08-07T00:52:10.736Z,2.35
2022-08-07T00:54:41.345Z,2.30
2022-08-07T00:57:10.164Z,2.53
2022-08-07T00:59:39.683Z,2.40
2022-08-07T01:02:14.188Z,2.05
2022-08-07T01:04:58.287Z,2.25
2022-08-07T01:07:28.019Z,2.20
2022-08-07T01:10:04.905Z,2.43
2022-08-07T01:12:35.399Z,3.03
2022-08-07T01:15:04.493Z,2.10
2022-08-07T01:17:33.020Z,2.00
2022-08-07T01:20:09.338Z,2.40
2022-08-07T01:22:41.489Z,2.40
2022-08-07T01:25:40.338Z,1.98
2022-08-07T01:28:03.655Z,2.20
2022-08-07T01:30:31.994Z,2.47
2022-08-07T01:32:59.456Z,2.20
2022-08-07T01:38:25.557Z,2.47
2022-08-07T01:41:02.190Z,1.95
2022-08-07T01:43:34.729Z,2.47
2022-08-07T01:46:08.361Z,2.25
2022-08-07T01:48:46.762Z,2.20
2022-08-07T01:52:01.071Z,2.10
2022-08-07T01:54:32.587Z,2.28
2022-08-07T01:57:24.518Z,2.38
2022-08-07T02:00:00.987Z,2.60
2022-08-07T02:03:19.016Z,2.63
2022-08-07T02:05:47.547Z,2.08
2022-08-07T02:08:20.725Z,2.60
2022-08-07T02:10:58.053Z,3.03
2022-08-07T02:13:57.458Z,2.30
2022-08-07T02:16:28.809Z,2.45
2022-08-07T02:19:05.674Z,2.53
2022-08-07T02:21:55.439Z,2.47
2022-08-07T02:24:25.950Z,2.50
2022-08-07T02:27:00.109Z,2.50
2022-08-07T02:29:30.655Z,2.60
2022-08-07T02:32:01.047Z,2.50
2022-08-07T02:34:29.600Z,2.50
2022-08-07T02:37:01.786Z,2.42
2022-08-07T02:39:43.345Z,2.97
2022-08-07T02:42:30.212Z,2.35
2022-08-07T02:45:00.789Z,2.55
2022-08-07T02:47:45.450Z,2.78
2022-08-07T02:50:18.461Z,2.53
2022-08-07T02:53:06.278Z,2.90
2022-08-07T02:56:02.439Z,3.00
2022-08-07T02:58:28.548Z,2.70
2022-08-07T03:01:03.121Z,2.88
2022-08-07T03:03:48.942Z,2.30
2022-08-07T03:06:26.085Z,2.40
2022-08-07T03:09:03.342Z,2.45
2022-08-07T03:11:39.010Z,2.50
2022-08-07T03:14:19.846Z,2.47
2022-08-07T03:16:50.350Z,2.60
2022-08-07T03:19:20.708Z,2.85
2022-08-07T03:21:50.749Z,2.80
2022-08-07T03:24:27.242Z,2.58
2022-08-07T03:27:00.934Z,2.65
2022-08-07T03:29:49.427Z,2.58
2022-08-07T03:32:28.407Z,2.85
2022-08-07T03:35:16.997Z,2.40
2022-08-07T03:37:53.843Z,2.55
2022-08-07T03:40:27.574Z,2.50
2022-08-07T03:43:01.529Z,2.45
2022-08-07T03:45:32.810Z,2.60
2022-08-07T03:48:11.641Z,2.53
2022-08-07T03:50:39.888Z,2.63
2022-08-07T03:53:11.299Z,3.00
2022-08-07T03:55:52.905Z,2.97
2022-08-07T03:59:04.763Z,2.28
2022-08-07T04:01:17.286Z,2.63
2022-08-07T04:03:53.169Z,2.58
2022-08-07T04:06:38.420Z,2.33
2022-08-07T04:09:15.363Z,2.17
2022-08-07T04:12:23.691Z,2.20
2022-08-07T04:14:38.576Z,2.25
2022-08-07T04:17:19.868Z,2.30
2022-08-07T04:19:51.565Z,1.85
2022-08-07T04:22:23.687Z,1.88
2022-08-07T04:24:58.196Z,1.90
2022-08-07T04:27:26.469Z,1.80
2022-08-07T04:32:39.185Z,2.05
2022-08-07T04:35:12.926Z,1.60
2022-08-07T04:38:03.921Z,1.33
2022-08-07T04:40:31.405Z,1.60
2022-08-07T04:43:02.149Z,1.40
2022-08-07T04:45:57.784Z,1.30
2022-08-07T04:48:44.529Z,1.73
2022-08-07T04:51:34.697Z,1.30
2022-08-07T04:54:15.435Z,1.30
2022-08-07T04:58:10.247Z,1.42
2022-08-07T05:00:30.641Z,1.27
2022-08-07T05:03:31.100Z,1.20
2022-08-07T05:06:28.330Z,0.85
2022-08-07T05:09:43.382Z,0.95
2022-08-07T05:12:26.881Z,1.13
2022-08-07T05:15:21.882Z,1.05
2022-08-07T05:18:06.113Z,1.20
2022-08-07T05:20:40.965Z,1.00
2022-08-07T05:23:16.528Z,1.10
2022-08-07T05:26:13.377Z,1.00
2022-08-07T05:28:40.543Z,1.63
2022-08-07T05:31:12.563Z,1.20
2022-08-07T05:34:01.214Z,0.93
2022-08-07T05:36:35.687Z,1.05
2022-08-07T05:40:07.039Z,0.85
2022-08-07T05:42:01.619Z,1.00
2022-08-07T05:44:35.367Z,0.82
2022-08-07T05:47:17.862Z,0.80
2022-08-07T05:49:52.476Z,0.90
2022-08-07T05:52:32.475Z,1.00
2022-08-07T05:55:07.228Z,0.80
2022-08-07T05:57:42.165Z,1.02
2022-08-07T06:00:15.966Z,1.00
2022-08-07T06:02:53.736Z,1.03
2022-08-07T06:05:28.453Z,0.70
2022-08-07T06:08:13.468Z,0.68
2022-08-07T06:10:51.435Z,0.85
2022-08-07T06:13:19.817Z,0.85
2022-08-07T06:16:08.483Z,0.88
2022-08-07T06:18:40.128Z,1.00
2022-08-07T06:22:16.132Z,0.80
2022-08-07T06:24:46.200Z,0.93
2022-08-07T06:26:46.337Z,1.30
2022-08-07T06:29:14.456Z,1.00
2022-08-07T06:31:49.833Z,1.00
2022-08-07T06:34:19.708Z,0.75
2022-08-07T06:36:52.239Z,0.70
2022-08-07T06:40:16.345Z,0.90
2022-08-07T06:42:37.096Z,1.15
2022-08-07T06:45:24.891Z,1.08
2022-08-07T06:47:58.903Z,0.90
2022-08-07T06:50:36.362Z,1.00
2022-08-07T06:53:49.135Z,0.80
2022-08-07T06:56:00.849Z,0.60
2022-08-07T06:58:29.590Z,0.80
2022-08-07T07:01:08.876Z,0.88
2022-08-07T07:03:49.125Z,0.90
2022-08-07T07:06:23.963Z,1.02
2022-08-07T07:08:53.322Z,1.00
2022-08-07T07:12:07.969Z,0.80
2022-08-07T07:14:10.311Z,0.80
2022-08-07T07:16:49.509Z,0.93
2022-08-07T07:19:57.499Z,0.77
2022-08-07T07:22:36.559Z,0.90
2022-08-07T07:26:33.380Z,1.10
2022-08-07T07:28:42.669Z,1.08
2022-08-07T07:31:08.423Z,1.10
2022-08-07T07:33:38.298Z,1.10
2022-08-07T07:36:13.256Z,0.70
2022-08-07T07:38:46.229Z,0.65
2022-08-07T07:41:17.526Z,0.85
2022-08-07T07:44:14.696Z,0.93
2022-08-07T07:46:55.702Z,1.02
2022-08-07T07:50:33.019Z,1.00
2022-08-07T07:52:17.132Z,1.00
2022-08-07T07:54:51.116Z,0.90
2022-08-07T07:57:43.651Z,0.90
2022-08-07T08:00:09.914Z,0.75
2022-08-07T08:03:00.955Z,1.00
2022-08-07T08:05:42.835Z,0.85
2022-08-07T08:08:35.528Z,1.00
2022-08-07T08:11:08.567Z,0.98
2022-08-07T08:13:54.680Z,0.80
2022-08-07T08:16:41.825Z,0.60
2022-08-07T08:20:16.367Z,0.88
2022-08-07T08:22:33.082Z,0.80
2022-08-07T08:25:41.823Z,1.15
2022-08-07T08:28:24.018Z,0.80
2022-08-07T08:31:15.621Z,0.57
2022-08-07T08:33:49.584Z,0.70
2022-08-07T08:36:29.846Z,0.80
2022-08-07T08:39:02.251Z,0.70
2022-08-07T08:41:59.370Z,0.73
2022-08-07T08:44:44.428Z,0.77
2022-08-07T08:47:52.942Z,1.00
2022-08-07T08:50:39.183Z,0.80
2022-08-07T08:53:07.221Z,0.80
2022-08-07T08:55:55.515Z,0.82
2022-08-07T08:58:57.263Z,0.98
2022-08-07T09:02:35.029Z,0.80
2022-08-07T09:05:32.144Z,0.70
2022-08-07T09:08:36.900Z,0.70
2022-08-07T09:11:43.033Z,0.77
2022-08-07T09:14:29.553Z,0.60
2022-08-07T09:17:15.174Z,0.65
2022-08-07T09:19:57.678Z,1.00
2022-08-07T09:24:32.968Z,0.88
2022-08-07T09:25:54.240Z,0.90
2022-08-07T09:30:02.368Z,1.15
2022-08-07T09:31:49.344Z,0.80
2022-08-07T09:34:21.535Z,0.63
2022-08-07T09:37:00.600Z,0.85
2022-08-07T09:39:53.610Z,1.17
2022-08-07T09:42:37.941Z,0.77
2022-08-07T09:47:23.741Z,0.98
2022-08-07T09:48:23.185Z,0.90
2022-08-07T09:52:10.520Z,1.10
2022-08-07T09:54:40.243Z,0.95
2022-08-07T09:57:23.767Z,0.80
2022-08-07T10:00:15.631Z,0.60
2022-08-07T10:02:55.629Z,1.10
2022-08-07T10:06:00.725Z,1.10
2022-08-07T10:08:34.448Z,0.80
2022-08-07T10:12:01.836Z,0.70
2022-08-07T10:14:39.707Z,1.05
2022-08-07T10:17:25.101Z,0.70
2022-08-07T10:20:31.771Z,1.20
2022-08-07T10:24:05.192Z,0.90
2022-08-07T10:26:41.311Z,1.05
2022-08-07T10:29:45.534Z,0.90
2022-08-07T10:32:53.286Z,0.70
2022-08-07T10:36:05.524Z,1.35
2022-08-07T10:38:48.779Z,0.80
2022-08-07T10:41:46.267Z,1.00
2022-08-07T10:44:28.377Z,0.80
2022-08-07T10:47:18.525Z,1.10
2022-08-07T10:50:11.304Z,0.80
2022-08-07T10:53:21.559Z,0.90
2022-08-07T10:56:03.257Z,1.02
2022-08-07T10:58:40.424Z,0.80
2022-08-07T11:01:22.370Z,0.85
2022-08-07T11:03:55.271Z,0.45
2022-08-07T11:07:14.912Z,0.70
2022-08-07T11:10:09.537Z,0.68
2022-08-07T11:13:02.292Z,0.95
2022-08-07T11:15:35.633Z,0.80
2022-08-07T11:18:35.442Z,0.60
2022-08-07T11:21:32.068Z,0.82
2022-08-07T11:24:04.209Z,0.60
2022-08-07T11:26:53.839Z,0.77
2022-08-07T11:32:40.408Z,0.93
2022-08-07T11:35:11.219Z,0.75
2022-08-07T11:37:58.243Z,0.70
2022-08-07T11:40:40.023Z,0.80
2022-08-07T11:43:41.759Z,0.75
2022-08-07T11:46:38.809Z,0.60
2022-08-07T11:49:17.875Z,0.50
2022-08-07T11:52:37.752Z,0.57
2022-08-07T11:55:18.920Z,0.60
2022-08-07T11:58:33.366Z,0.85
2022-08-07T12:01:20.403Z,0.50
2022-08-07T12:04:27.664Z,0.50
2022-08-07T12:07:27.692Z,0.77
2022-08-07T12:10:07.683Z,0.50
2022-08-07T12:12:52.277Z,0.40
2022-08-07T12:15:46.185Z,0.60
2022-08-07T12:18:22.313Z,0.55
2022-08-07T12:21:21.027Z,0.77
2022-08-07T12:25:07.827Z,0.50
2022-08-07T12:28:09.577Z,0.50
2022-08-07T12:30:33.475Z,0.50
2022-08-07T12:33:09.278Z,0.40
2022-08-07T12:35:58.011Z,0.65
2022-08-07T12:38:39.325Z,0.52
2022-08-07T12:41:12.899Z,0.50
2022-08-07T12:44:03.617Z,0.50
2022-08-07T12:46:53.003Z,0.38
2022-08-07T12:49:44.300Z,0.40
2022-08-07T12:52:39.184Z,0.70
2022-08-07T12:56:02.341Z,0.40
2022-08-07T12:58:39.672Z,0.52
2022-08-07T13:01:27.903Z,0.50
2022-08-07T13:04:31.714Z,0.70
2022-08-07T13:08:13.560Z,0.70
2022-08-07T13:10:37.578Z,0.43
2022-08-07T13:13:48.937Z,0.82
2022-08-07T13:16:36.629Z,0.60
2022-08-07T13:19:34.996Z,0.60
2022-08-07T13:22:19.785Z,0.70
2022-08-07T13:25:03.404Z,0.55
2022-08-07T13:28:10.931Z,0.50
2022-08-07T13:30:40.285Z,0.77
2022-08-07T13:34:30.827Z,0.70
2022-08-07T13:36:17.490Z,0.50
2022-08-07T13:38:45.428Z,0.75
2022-08-07T13:41:49.738Z,0.63
2022-08-07T13:44:27.611Z,0.82
2022-08-07T13:47:09.082Z,0.70
2022-08-07T13:50:35.133Z,0.90
2022-08-07T13:52:40.865Z,0.50
2022-08-07T13:55:13.197Z,0.50
2022-08-07T13:58:01.929Z,0.63
2022-08-07T14:00:39.562Z,0.80
2022-08-07T14:03:29.160Z,0.60
2022-08-07T14:06:12.335Z,1.00
2022-08-07T14:08:44.307Z,0.60
2022-08-07T14:11:17.671Z,0.60
2022-08-07T14:13:55.873Z,0.82
2022-08-07T14:16:32.489Z,0.60
2022-08-07T14:19:03.153Z,0.50
2022-08-07T14:22:03.543Z,0.68
2022-08-07T14:24:33.642Z,0.60
2022-08-07T14:28:11.842Z,0.60
2022-08-07T14:30:07.463Z,0.70
2022-08-07T14:32:47.421Z,0.93
2022-08-07T14:35:44.882Z,0.65
2022-08-07T14:38:26.411Z,0.80
2022-08-07T14:41:02.210Z,1.23
2022-08-07T14:43:59.336Z,0.57
2022-08-07T14:49:56.098Z,0.68
2022-08-07T14:52:05.048Z,0.82
2022-08-07T14:54:43.409Z,0.80
2022-08-07T14:57:14.868Z,0.40
2022-08-07T15:02:39.073Z,0.77
2022-08-07T15:10:58.755Z,0.77
2022-08-07T15:16:20.144Z,0.95
2022-08-07T15:19:05.249Z,1.33
2022-08-07T15:21:58.740Z,0.50
2022-08-07T15:25:15.651Z,0.38
2022-08-07T15:27:26.104Z,0.30
2022-08-07T15:30:10.333Z,0.30
2022-08-07T15:33:01.195Z,0.57
2022-08-07T15:36:01.807Z,0.45
2022-08-07T15:38:33.072Z,0.43
2022-08-07T15:41:23.805Z,0.60
2022-08-07T15:44:09.089Z,0.77
2022-08-07T15:46:47.345Z,0.45
2022-08-07T15:49:25.274Z,0.75
2022-08-07T15:54:34.711Z,0.60
2022-08-07T15:57:39.392Z,0.70
2022-08-07T15:59:59.297Z,0.60
2022-08-07T16:02:29.970Z,0.68
2022-08-07T16:05:01.001Z,0.85
2022-08-07T16:08:30.207Z,0.88
2022-08-07T16:10:22.844Z,0.82
2022-08-07T16:13:59.438Z,0.63
2022-08-07T16:16:47.965Z,0.55
2022-08-07T16:19:42.519Z,0.70
2022-08-07T16:22:37.755Z,0.60
2022-08-07T16:25:55.249Z,0.60
2022-08-07T16:30:05.490Z,0.75
2022-08-07T16:31:51.289Z,0.73
2022-08-07T16:34:24.648Z,0.90
2022-08-07T16:37:02.341Z,0.60
2022-08-07T16:39:49.124Z,0.65
2022-08-07T16:42:25.537Z,0.73
2022-08-07T16:45:14.852Z,0.68
2022-08-07T16:48:53.843Z,0.50
2022-08-07T16:52:06.534Z,0.93
2022-08-07T16:54:58.562Z,0.90
2022-08-07T16:58:02.392Z,0.73
2022-08-07T17:00:31.996Z,0.57
2022-08-07T17:03:17.731Z,0.80
2022-08-07T17:06:19.217Z,0.65
2022-08-07T17:09:09.442Z,0.60
2022-08-07T17:12:04.325Z,0.70
2022-08-07T17:14:43.853Z,0.73
2022-08-07T17:17:47.530Z,0.90
2022-08-07T17:20:37.793Z,0.80
2022-08-07T17:23:23.134Z,0.82
2022-08-07T17:26:30.747Z,1.02
2022-08-07T17:29:18.342Z,0.77
2022-08-07T17:32:35.607Z,1.15
2022-08-07T17:35:51.816Z,1.15
2022-08-07T17:38:11.349Z,0.75
2022-08-07T17:40:57.069Z,0.85
2022-08-07T17:44:00.957Z,0.95
2022-08-07T17:46:34.245Z,1.17
2022-08-07T17:49:23.376Z,0.93
2022-08-07T17:52:12.947Z,0.88
2022-08-07T17:54:53.920Z,0.75
2022-08-07T17:57:58.364Z,0.98
2022-08-07T18:00:34.509Z,1.08
2022-08-07T18:03:25.430Z,0.90
2022-08-07T18:06:09.432Z,0.90
2022-08-07T18:09:01.780Z,0.90
2022-08-07T18:12:18.117Z,0.90
2022-08-07T18:14:38.276Z,0.82
2022-08-07T18:18:33.111Z,1.20
2022-08-07T18:21:08.229Z,1.17
2022-08-07T18:23:57.389Z,1.08
2022-08-07T18:26:40.868Z,1.00
2022-08-07T18:30:08.443Z,1.35
2022-08-07T18:33:16.175Z,1.00
2022-08-07T18:35:50.306Z,0.90
2022-08-07T18:38:54.868Z,1.05
2022-08-07T18:41:45.907Z,1.00
2022-08-07T18:45:09.162Z,1.13
2022-08-07T18:47:44.672Z,0.98
2022-08-07T18:50:40.705Z,1.00
2022-08-07T18:53:56.054Z,0.93
2022-08-07T18:57:06.143Z,1.17
2022-08-07T19:00:00.542Z,1.20
2022-08-07T19:03:02.449Z,1.02
2022-08-07T19:06:21.897Z,1.20
2022-08-07T19:09:54.591Z,1.30
2022-08-07T19:12:20.671Z,1.00
2022-08-07T19:16:03.305Z,1.38
2022-08-07T19:18:35.313Z,1.20
2022-08-07T19:21:47.980Z,0.95
2022-08-07T19:24:10.168Z,1.35
2022-08-07T19:27:01.890Z,1.35
2022-08-07T19:31:01.644Z,1.40
2022-08-07T19:32:42.277Z,1.63
2022-08-07T19:35:25.338Z,1.45
2022-08-07T19:37:58.503Z,1.30
2022-08-07T19:40:30.561Z,1.40
2022-08-07T19:43:07.287Z,1.50
2022-08-07T19:46:07.874Z,1.65
2022-08-07T19:49:04.480Z,1.85
2022-08-07T19:51:52.591Z,2.03
2022-08-07T19:54:32.522Z,1.73
2022-08-07T19:58:02.495Z,1.80
2022-08-07T20:00:10.061Z,1.92
2022-08-07T20:03:02.865Z,1.70
2022-08-07T20:06:00.034Z,2.15
2022-08-07T20:08:24.107Z,1.73
2022-08-07T20:11:03.746Z,1.95
2022-08-07T20:13:34.351Z,1.85
2022-08-07T20:16:04.603Z,1.70
2022-08-07T20:18:34.684Z,1.98
2022-08-07T20:21:14.830Z,2.00
2022-08-07T20:23:57.989Z,2.22
2022-08-07T20:26:38.626Z,2.20
2022-08-07T20:29:47.296Z,1.90
2022-08-07T20:32:05.855Z,1.95
2022-08-07T20:34:50.647Z,2.40
2022-08-07T20:37:29.352Z,2.15
2022-08-07T20:40:03.871Z,2.10
2022-08-07T20:42:33.731Z,1.90
2022-08-07T20:45:33.696Z,1.80
2022-08-07T20:47:57.944Z,1.70
2022-08-07T20:50:29.058Z,2.10
2022-08-07T20:52:58.063Z,1.77
2022-08-07T20:55:25.446Z,1.95
2022-08-07T20:58:00.045Z,2.20
2022-08-07T21:00:42.165Z,2.05
2022-08-07T21:03:14.136Z,2.20
2022-08-07T21:05:55.835Z,2.30
2022-08-07T21:08:36.615Z,2.28
2022-08-07T21:11:40.111Z,2.25
2022-08-07T21:14:31.963Z,2.15
2022-08-07T21:18:03.163Z,2.00
2022-08-07T21:20:04.849Z,1.88
2022-08-07T21:22:54.135Z,2.00
2022-08-07T21:25:24.604Z,2.00
2022-08-07T21:28:05.799Z,1.95
2022-08-07T21:30:48.020Z,1.85
2022-08-07T21:33:23.814Z,2.20
2022-08-07T21:36:50.539Z,2.05
2022-08-07T21:39:46.217Z,2.13
2022-08-07T21:42:42.637Z,2.20
2022-08-07T21:46:10.452Z,2.53
2022-08-07T21:48:57.508Z,2.58
2022-08-07T21:51:27.445Z,2.40
2022-08-07T21:54:26.128Z,2.80
2022-08-07T21:57:44.947Z,2.22
2022-08-07T22:00:25.115Z,2.17
2022-08-07T22:03:17.373Z,2.40
2022-08-07T22:06:06.182Z,2.35
2022-08-07T22:08:51.795Z,2.83
2022-08-07T22:11:21.594Z,2.63
2022-08-07T22:13:55.679Z,2.83
2022-08-07T22:16:46.224Z,2.60
2022-08-07T22:19:29.675Z,2.75
2022-08-07T22:22:20.717Z,2.28
2022-08-07T22:25:46.284Z,2.30
2022-08-07T22:28:31.603Z,2.70
2022-08-07T22:31:58.928Z,2.63
2022-08-07T22:34:13.237Z,3.05
2022-08-07T22:36:52.888Z,2.85
2022-08-07T22:39:35.502Z,2.70
2022-08-07T22:42:53.954Z,2.67
2022-08-07T22:46:21.412Z,2.70
2022-08-07T22:48:55.071Z,2.47
2022-08-07T22:51:36.448Z,2.70
2022-08-07T22:54:48.926Z,2.70
2022-08-07T22:57:53.388Z,3.08
2022-08-07T23:00:28.484Z,3.25
2022-08-07T23:03:18.048Z,3.45
2022-08-07T23:06:07.565Z,3.75
2022-08-07T23:10:01.138Z,3.78
2022-08-07T23:12:32.673Z,3.38
2022-08-07T23:15:10.944Z,4.03
2022-08-07T23:18:13.314Z,3.15
2022-08-07T23:20:59.749Z,3.67
2022-08-07T23:24:06.006Z,4.60
2022-08-07T23:26:56.882Z,3.85
2022-08-07T23:29:43.443Z,3.45
2022-08-07T23:34:23.385Z,3.50
2022-08-07T23:36:17.072Z,3.58
2022-08-07T23:39:22.042Z,3.50
2022-08-07T23:42:15.693Z,3.60
2022-08-07T23:44:52.514Z,3.60
2022-08-07T23:47:22.617Z,3.25
2022-08-07T23:50:28.730Z,3.88
2022-08-07T23:53:17.108Z,3.88
2022-08-07T23:56:21.868Z,3.55
